createdAt,value
2018-12-06T00:00:58.241Z,3.05
2018-12-06T00:15:51.131Z,2.89
2018-12-06T00:30:53.078Z,2.87
2018-12-06T00:45:52.927Z,2.79
2018-12-06T01:00:52.919Z,2.83
2018-12-06T01:15:50.874Z,2.77
2018-12-06T01:30:52.481Z,2.71
2018-12-06T01:45:51.227Z,2.72
2018-12-06T02:00:52.131Z,2.72
2018-12-06T02:15:51.591Z,2.75
2018-12-06T02:30:52.197Z,2.63
2018-12-06T02:45:51.266Z,2.57
2018-12-06T03:00:53.771Z,2.55
2018-12-06T03:15:51.166Z,2.52
2018-12-06T03:30:54.633Z,2.48
2018-12-06T03:45:51.429Z,2.42
2018-12-06T04:00:53.996Z,2.40
2018-12-06T04:15:56.626Z,2.38
2018-12-06T04:30:53.758Z,2.36
2018-12-06T04:45:54.126Z,2.39
2018-12-06T05:00:52.505Z,2.45
2018-12-06T05:15:53.837Z,2.40
2018-12-06T05:30:50.836Z,2.47
2018-12-06T05:45:50.675Z,2.51
2018-12-06T06:00:50.632Z,2.61
2018-12-06T06:15:51.576Z,2.57
2018-12-06T06:30:56.186Z,2.55
2018-12-06T06:45:51.483Z,2.60
2018-12-06T07:00:50.763Z,2.74
2018-12-06T07:15:50.730Z,3.02
2018-12-06T07:30:52.061Z,3.40
2018-12-06T07:45:51.091Z,4.11
2018-12-06T08:15:50.867Z,5.24
2018-12-06T08:30:53.816Z,6.77
2018-12-06T08:45:53.340Z,8.78
2018-12-06T09:00:53.244Z,8.01
2018-12-06T09:15:53.157Z,7.53
2018-12-06T09:30:51.409Z,7.99
2018-12-06T09:45:51.474Z,9.15
2018-12-06T10:00:51.344Z,10.03
2018-12-06T10:15:51.199Z,10.70
2018-12-06T10:30:54.018Z,11.09
2018-12-06T10:45:51.459Z,11.19
2018-12-06T11:00:58.621Z,11.17
2018-12-06T11:15:51.999Z,11.05
2018-12-06T11:30:51.798Z,10.83
2018-12-06T11:45:50.606Z,10.37
2018-12-06T12:00:51.691Z,9.98
2018-12-06T12:15:53.837Z,9.38
2018-12-06T12:30:52.892Z,8.78
2018-12-06T12:45:50.981Z,8.36
2018-12-06T13:00:50.867Z,7.99
2018-12-06T13:15:50.711Z,7.40
2018-12-06T13:30:51.174Z,6.97
2018-12-06T13:45:52.432Z,6.16
2018-12-06T14:00:51.060Z,5.62
2018-12-06T14:15:52.850Z,5.23
2018-12-06T14:30:51.112Z,4.87
2018-12-06T14:45:51.120Z,4.54
2018-12-06T15:00:51.531Z,4.88
2018-12-06T15:15:51.095Z,4.25
2018-12-06T15:30:51.498Z,3.85
2018-12-06T15:45:51.398Z,3.58
2018-12-06T16:00:51.252Z,3.37
2018-12-06T16:15:51.306Z,3.20
2018-12-06T16:45:53.790Z,2.70
2018-12-06T17:00:59.394Z,2.59
2018-12-06T17:15:51.461Z,2.56
2018-12-06T17:30:50.919Z,2.40
2018-12-06T18:00:53.009Z,2.22
2018-12-06T18:15:53.698Z,2.15
2018-12-06T18:30:51.833Z,2.10
2018-12-06T18:45:50.418Z,2.03
2018-12-06T19:00:51.013Z,1.93
2018-12-06T19:15:50.923Z,1.84
2018-12-06T19:30:54.117Z,1.76
2018-12-06T19:45:53.081Z,1.68
2018-12-06T20:00:52.054Z,1.56
2018-12-06T20:15:50.895Z,1.46
2018-12-06T20:30:51.465Z,1.39
2018-12-06T20:45:54.003Z,1.31
2018-12-06T21:00:51.367Z,1.21
2018-12-06T21:15:53.873Z,1.15
2018-12-06T21:30:51.471Z,1.07
2018-12-06T21:45:51.352Z,0.93
2018-12-06T22:00:51.310Z,0.80
2018-12-06T22:15:51.304Z,0.76
2018-12-06T22:30:54.125Z,0.66
2018-12-06T22:45:59.648Z,0.56
2018-12-06T23:00:53.648Z,0.45
2018-12-06T23:15:51.398Z,0.37
2018-12-06T23:30:52.303Z,0.32
2018-12-06T23:45:50.717Z,0.24
